sensor_id;sensor_type;location;lat;lon;timestamp;P1;durP1;ratioP1;P2;durP2;ratioP2
36833;SDS011;48003;52.084;5.224;2023-03-09T00:00:33;28.9;;;20.6;;
36833;SDS011;48003;52.084;5.224;2023-03-09T00:02:09;27.3;;;18.91;;
36833;SDS011;48003;52.084;5.224;2023-03-09T00:05:23;30.5;;;20.5;;
36833;SDS011;48003;52.084;5.224;2023-03-09T00:06:59;29.0;;;20.41;;
36833;SDS011;48003;52.084;5.224;2023-03-09T00:08:35;29.3;;;20.41;;
36833;SDS011;48003;52.084;5.224;2023-03-09T00:11:50;29.9;;;20.7;;
36833;SDS011;48003;52.084;5.224;2023-03-09T00:13:26;28.6;;;20.0;;
36833;SDS011;48003;52.084;5.224;2023-03-09T00:15:03;29.9;;;19.61;;
36833;SDS011;48003;52.084;5.224;2023-03-09T00:16:40;27.4;;;18.7;;
36833;SDS011;48003;52.084;5.224;2023-03-09T00:19:53;26.4;;;19.5;;
36833;SDS011;48003;52.084;5.224;2023-03-09T00:21:29;29.0;;;19.91;;
36833;SDS011;48003;52.084;5.224;2023-03-09T00:23:05;29.9;;;19.7;;
36833;SDS011;48003;52.084;5.224;2023-03-09T00:26:17;26.9;;;19.7;;
36833;SDS011;48003;52.084;5.224;2023-03-09T00:27:54;25.9;;;18.3;;
36833;SDS011;48003;52.084;5.224;2023-03-09T00:29:30;25.5;;;18.7;;
36833;SDS011;48003;52.084;5.224;2023-03-09T00:32:43;27.2;;;19.11;;
36833;SDS011;48003;52.084;5.224;2023-03-09T00:34:21;29.1;;;20.11;;
36833;SDS011;48003;52.084;5.224;2023-03-09T00:35:57;27.9;;;19.5;;
36833;SDS011;48003;52.084;5.224;2023-03-09T00:37:35;27.6;;;19.3;;
36833;SDS011;48003;52.084;5.224;2023-03-09T00:40:51;28.2;;;19.7;;
36833;SDS011;48003;52.084;5.224;2023-03-09T00:42:27;27.4;;;19.11;;
36833;SDS011;48003;52.084;5.224;2023-03-09T00:44:03;26.6;;;19.5;;
36833;SDS011;48003;52.084;5.224;2023-03-09T00:47:16;30.9;;;19.91;;
36833;SDS011;48003;52.084;5.224;2023-03-09T00:48:53;31.0;;;19.8;;
36833;SDS011;48003;52.084;5.224;2023-03-09T00:50:29;28.8;;;19.2;;
36833;SDS011;48003;52.084;5.224;2023-03-09T00:52:05;28.8;;;19.2;;
36833;SDS011;48003;52.084;5.224;2023-03-09T00:55:18;25.6;;;17.7;;
36833;SDS011;48003;52.084;5.224;2023-03-09T00:56:54;28.3;;;18.7;;
36833;SDS011;48003;52.084;5.224;2023-03-09T00:58:30;26.7;;;18.8;;
36833;SDS011;48003;52.084;5.224;2023-03-09T01:01:47;29.3;;;19.0;;
36833;SDS011;48003;52.084;5.224;2023-03-09T01:03:23;27.6;;;18.7;;
36833;SDS011;48003;52.084;5.224;2023-03-09T01:04:59;28.1;;;18.91;;
36833;SDS011;48003;52.084;5.224;2023-03-09T01:08:11;27.4;;;18.8;;
36833;SDS011;48003;52.084;5.224;2023-03-09T01:09:48;25.3;;;18.5;;
36833;SDS011;48003;52.084;5.224;2023-03-09T01:11:24;27.2;;;18.91;;
36833;SDS011;48003;52.084;5.224;2023-03-09T01:13:01;27.7;;;19.11;;
36833;SDS011;48003;52.084;5.224;2023-03-09T01:16:13;26.5;;;18.41;;
36833;SDS011;48003;52.084;5.224;2023-03-09T01:17:50;28.0;;;18.11;;
36833;SDS011;48003;52.084;5.224;2023-03-09T01:19:27;27.6;;;18.41;;
36833;SDS011;48003;52.084;5.224;2023-03-09T01:22:41;27.6;;;18.41;;
36833;SDS011;48003;52.084;5.224;2023-03-09T01:24:17;26.8;;;18.11;;
36833;SDS011;48003;52.084;5.224;2023-03-09T01:25:53;25.9;;;17.7;;
36833;SDS011;48003;52.084;5.224;2023-03-09T01:29:07;25.8;;;17.8;;
36833;SDS011;48003;52.084;5.224;2023-03-09T01:30:43;26.6;;;18.3;;
36833;SDS011;48003;52.084;5.224;2023-03-09T01:32:21;25.4;;;18.0;;
36833;SDS011;48003;52.084;5.224;2023-03-09T01:33:57;27.9;;;18.7;;
36833;SDS011;48003;52.084;5.224;2023-03-09T01:37:09;25.6;;;18.0;;
36833;SDS011;48003;52.084;5.224;2023-03-09T01:38:46;25.5;;;18.0;;
36833;SDS011;48003;52.084;5.224;2023-03-09T01:40:23;24.9;;;17.8;;
36833;SDS011;48003;52.084;5.224;2023-03-09T01:43:39;25.5;;;18.0;;
36833;SDS011;48003;52.084;5.224;2023-03-09T01:46:37;25.2;;;17.91;;
36833;SDS011;48003;52.084;5.224;2023-03-09T01:48:20;24.4;;;17.3;;
36833;SDS011;48003;52.084;5.224;2023-03-09T01:49:56;28.6;;;18.61;;
36833;SDS011;48003;52.084;5.224;2023-03-09T01:51:33;25.8;;;17.8;;
36833;SDS011;48003;52.084;5.224;2023-03-09T01:53:18;25.8;;;17.41;;
36833;SDS011;48003;52.084;5.224;2023-03-09T01:54:55;26.7;;;17.7;;
36833;SDS011;48003;52.084;5.224;2023-03-09T01:58:19;27.4;;;18.5;;
36833;SDS011;48003;52.084;5.224;2023-03-09T01:59:58;24.8;;;17.3;;
36833;SDS011;48003;52.084;5.224;2023-03-09T02:01:39;25.0;;;17.8;;
36833;SDS011;48003;52.084;5.224;2023-03-09T02:03:18;25.3;;;17.41;;
36833;SDS011;48003;52.084;5.224;2023-03-09T02:06:39;23.5;;;16.61;;
36833;SDS011;48003;52.084;5.224;2023-03-09T02:08:16;24.2;;;17.0;;
36833;SDS011;48003;52.084;5.224;2023-03-09T02:09:56;24.1;;;16.3;;
36833;SDS011;48003;52.084;5.224;2023-03-09T02:11:37;26.4;;;17.61;;
36833;SDS011;48003;52.084;5.224;2023-03-09T02:14:53;23.3;;;17.0;;
36833;SDS011;48003;52.084;5.224;2023-03-09T02:16:30;25.3;;;16.8;;
36833;SDS011;48003;52.084;5.224;2023-03-09T02:18:07;25.3;;;17.7;;
36833;SDS011;48003;52.084;5.224;2023-03-09T02:21:40;25.1;;;17.91;;
36833;SDS011;48003;52.084;5.224;2023-03-09T02:23:25;24.0;;;17.2;;
36833;SDS011;48003;52.084;5.224;2023-03-09T02:25:14;24.8;;;16.7;;
36833;SDS011;48003;52.084;5.224;2023-03-09T02:26:59;24.4;;;16.8;;
36833;SDS011;48003;52.084;5.224;2023-03-09T02:28:38;24.7;;;16.9;;
36833;SDS011;48003;52.084;5.224;2023-03-09T02:31:50;26.6;;;17.91;;
36833;SDS011;48003;52.084;5.224;2023-03-09T02:33:27;25.8;;;17.11;;
36833;SDS011;48003;52.084;5.224;2023-03-09T02:35:05;26.9;;;17.91;;
36833;SDS011;48003;52.084;5.224;2023-03-09T02:36:41;26.6;;;17.2;;
36833;SDS011;48003;52.084;5.224;2023-03-09T02:39:54;24.7;;;17.2;;
36833;SDS011;48003;52.084;5.224;2023-03-09T02:41:33;25.2;;;17.0;;
36833;SDS011;48003;52.084;5.224;2023-03-09T02:43:10;26.8;;;18.61;;
36833;SDS011;48003;52.084;5.224;2023-03-09T02:46:25;26.2;;;17.7;;
36833;SDS011;48003;52.084;5.224;2023-03-09T02:48:01;25.0;;;17.7;;
36833;SDS011;48003;52.084;5.224;2023-03-09T02:49:38;27.5;;;18.0;;
36833;SDS011;48003;52.084;5.224;2023-03-09T02:52:51;26.5;;;17.8;;
36833;SDS011;48003;52.084;5.224;2023-03-09T02:54:28;26.4;;;18.0;;
36833;SDS011;48003;52.084;5.224;2023-03-09T02:56:04;27.5;;;18.11;;
36833;SDS011;48003;52.084;5.224;2023-03-09T02:57:41;27.8;;;18.3;;
36833;SDS011;48003;52.084;5.224;2023-03-09T03:00:55;26.4;;;17.8;;
36833;SDS011;48003;52.084;5.224;2023-03-09T03:02:31;29.7;;;18.8;;
36833;SDS011;48003;52.084;5.224;2023-03-09T03:04:07;28.1;;;18.61;;
36833;SDS011;48003;52.084;5.224;2023-03-09T03:07:19;27.6;;;18.61;;
36833;SDS011;48003;52.084;5.224;2023-03-09T03:08:55;28.0;;;19.11;;
36833;SDS011;48003;52.084;5.224;2023-03-09T03:10:31;29.4;;;20.3;;
36833;SDS011;48003;52.084;5.224;2023-03-09T03:13:45;30.0;;;19.61;;
36833;SDS011;48003;52.084;5.224;2023-03-09T03:15:21;28.3;;;19.3;;
36833;SDS011;48003;52.084;5.224;2023-03-09T03:16:57;30.7;;;19.7;;
36833;SDS011;48003;52.084;5.224;2023-03-09T03:18:33;34.1;;;21.0;;
36833;SDS011;48003;52.084;5.224;2023-03-09T03:21:47;29.9;;;19.7;;
36833;SDS011;48003;52.084;5.224;2023-03-09T03:23:24;29.5;;;19.2;;
36833;SDS011;48003;52.084;5.224;2023-03-09T03:25:00;28.2;;;19.5;;
36833;SDS011;48003;52.084;5.224;2023-03-09T03:28:12;30.2;;;19.8;;
36833;SDS011;48003;52.084;5.224;2023-03-09T03:29:50;28.0;;;19.2;;
36833;SDS011;48003;52.084;5.224;2023-03-09T03:31:26;29.3;;;19.0;;
36833;SDS011;48003;52.084;5.224;2023-03-09T03:34:39;29.3;;;19.7;;
36833;SDS011;48003;52.084;5.224;2023-03-09T03:36:15;28.6;;;19.3;;
36833;SDS011;48003;52.084;5.224;2023-03-09T03:37:51;29.5;;;19.0;;
36833;SDS011;48003;52.084;5.224;2023-03-09T03:39:27;30.5;;;19.8;;
36833;SDS011;48003;52.084;5.224;2023-03-09T03:42:39;29.1;;;18.91;;
36833;SDS011;48003;52.084;5.224;2023-03-09T03:44:15;30.5;;;19.61;;
36833;SDS011;48003;52.084;5.224;2023-03-09T03:45:53;29.9;;;19.5;;
36833;SDS011;48003;52.084;5.224;2023-03-09T03:49:05;29.0;;;19.61;;
36833;SDS011;48003;52.084;5.224;2023-03-09T03:50:41;30.4;;;19.11;;
36833;SDS011;48003;52.084;5.224;2023-03-09T03:52:17;28.9;;;19.61;;
36833;SDS011;48003;52.084;5.224;2023-03-09T03:55:30;28.7;;;19.41;;
36833;SDS011;48003;52.084;5.224;2023-03-09T03:57:07;29.2;;;19.41;;
36833;SDS011;48003;52.084;5.224;2023-03-09T03:58:43;25.4;;;17.8;;
36833;SDS011;48003;52.084;5.224;2023-03-09T04:01:56;30.6;;;19.7;;
36833;SDS011;48003;52.084;5.224;2023-03-09T04:03:32;29.0;;;18.7;;
36833;SDS011;48003;52.084;5.224;2023-03-09T04:05:09;27.9;;;19.0;;
36833;SDS011;48003;52.084;5.224;2023-03-09T04:06:46;25.9;;;18.2;;
36833;SDS011;48003;52.084;5.224;2023-03-09T04:09:58;27.7;;;17.61;;
36833;SDS011;48003;52.084;5.224;2023-03-09T04:11:34;28.1;;;18.91;;
36833;SDS011;48003;52.084;5.224;2023-03-09T04:13:10;26.4;;;17.8;;
36833;SDS011;48003;52.084;5.224;2023-03-09T04:16:23;26.3;;;17.91;;
36833;SDS011;48003;52.084;5.224;2023-03-09T04:17:59;26.6;;;18.7;;
36833;SDS011;48003;52.084;5.224;2023-03-09T04:19:36;30.6;;;19.41;;
36833;SDS011;48003;52.084;5.224;2023-03-09T04:22:48;29.2;;;19.41;;
36833;SDS011;48003;52.084;5.224;2023-03-09T04:24:24;29.2;;;19.41;;
36833;SDS011;48003;52.084;5.224;2023-03-09T04:26:01;28.5;;;19.3;;
36833;SDS011;48003;52.084;5.224;2023-03-09T04:27:41;28.5;;;19.11;;
36833;SDS011;48003;52.084;5.224;2023-03-09T04:30:53;27.3;;;18.0;;
36833;SDS011;48003;52.084;5.224;2023-03-09T04:32:30;29.0;;;18.5;;
36833;SDS011;48003;52.084;5.224;2023-03-09T04:34:07;25.7;;;18.41;;
36833;SDS011;48003;52.084;5.224;2023-03-09T04:37:21;29.1;;;18.61;;
36833;SDS011;48003;52.084;5.224;2023-03-09T04:38:58;28.0;;;18.3;;
36833;SDS011;48003;52.084;5.224;2023-03-09T04:40:35;28.7;;;19.0;;
36833;SDS011;48003;52.084;5.224;2023-03-09T04:42:12;28.0;;;19.0;;
36833;SDS011;48003;52.084;5.224;2023-03-09T04:45:24;30.4;;;19.2;;
36833;SDS011;48003;52.084;5.224;2023-03-09T04:47:00;27.6;;;17.41;;
36833;SDS011;48003;52.084;5.224;2023-03-09T04:48:36;28.3;;;18.3;;
36833;SDS011;48003;52.084;5.224;2023-03-09T04:51:49;29.9;;;19.3;;
36833;SDS011;48003;52.084;5.224;2023-03-09T04:53:25;27.8;;;18.8;;
36833;SDS011;48003;52.084;5.224;2023-03-09T04:55:01;29.2;;;18.61;;
36833;SDS011;48003;52.084;5.224;2023-03-09T04:58:13;28.8;;;18.7;;
36833;SDS011;48003;52.084;5.224;2023-03-09T04:59:49;29.4;;;18.7;;
36833;SDS011;48003;52.084;5.224;2023-03-09T05:01:26;28.9;;;19.5;;
36833;SDS011;48003;52.084;5.224;2023-03-09T05:04:38;30.3;;;19.5;;
36833;SDS011;48003;52.084;5.224;2023-03-09T05:06:14;26.4;;;18.5;;
36833;SDS011;48003;52.084;5.224;2023-03-09T05:07:50;28.6;;;18.91;;
36833;SDS011;48003;52.084;5.224;2023-03-09T05:09:26;28.6;;;19.11;;
36833;SDS011;48003;52.084;5.224;2023-03-09T05:12:39;31.4;;;19.3;;
36833;SDS011;48003;52.084;5.224;2023-03-09T05:14:15;30.0;;;19.5;;
36833;SDS011;48003;52.084;5.224;2023-03-09T05:15:51;30.6;;;19.8;;
36833;SDS011;48003;52.084;5.224;2023-03-09T05:19:04;29.0;;;19.5;;
36833;SDS011;48003;52.084;5.224;2023-03-09T05:20:40;27.5;;;18.41;;
36833;SDS011;48003;52.084;5.224;2023-03-09T05:22:16;29.6;;;19.41;;
36833;SDS011;48003;52.084;5.224;2023-03-09T05:25:29;30.6;;;19.2;;
36833;SDS011;48003;52.084;5.224;2023-03-09T05:27:07;28.2;;;18.7;;
36833;SDS011;48003;52.084;5.224;2023-03-09T05:28:43;29.4;;;19.41;;
36833;SDS011;48003;52.084;5.224;2023-03-09T05:30:19;29.8;;;19.8;;
36833;SDS011;48003;52.084;5.224;2023-03-09T05:33:31;29.9;;;19.91;;
36833;SDS011;48003;52.084;5.224;2023-03-09T05:35:08;30.1;;;19.41;;
36833;SDS011;48003;52.084;5.224;2023-03-09T05:36:44;31.7;;;19.91;;
36833;SDS011;48003;52.084;5.224;2023-03-09T05:39:56;30.7;;;20.11;;
36833;SDS011;48003;52.084;5.224;2023-03-09T05:41:32;28.6;;;19.7;;
36833;SDS011;48003;52.084;5.224;2023-03-09T05:43:08;30.4;;;19.8;;
36833;SDS011;48003;52.084;5.224;2023-03-09T05:46:22;31.4;;;19.7;;
36833;SDS011;48003;52.084;5.224;2023-03-09T05:47:58;30.1;;;19.61;;
36833;SDS011;48003;52.084;5.224;2023-03-09T05:49:34;28.6;;;19.8;;
36833;SDS011;48003;52.084;5.224;2023-03-09T05:52:47;31.4;;;20.2;;
36833;SDS011;48003;52.084;5.224;2023-03-09T05:54:23;30.6;;;20.8;;
36833;SDS011;48003;52.084;5.224;2023-03-09T05:56:00;31.5;;;21.0;;
36833;SDS011;48003;52.084;5.224;2023-03-09T05:57:37;31.6;;;20.7;;
36833;SDS011;48003;52.084;5.224;2023-03-09T06:00:50;32.21;;;20.7;;
36833;SDS011;48003;52.084;5.224;2023-03-09T06:02:26;30.2;;;20.9;;
36833;SDS011;48003;52.084;5.224;2023-03-09T06:04:02;31.7;;;21.1;;
36833;SDS011;48003;52.084;5.224;2023-03-09T06:07:15;32.8;;;21.2;;
36833;SDS011;48003;52.084;5.224;2023-03-09T06:08:52;32.6;;;20.9;;
36833;SDS011;48003;52.084;5.224;2023-03-09T06:10:28;36.5;;;22.1;;
36833;SDS011;48003;52.084;5.224;2023-03-09T06:13:40;34.31;;;22.3;;
36833;SDS011;48003;52.084;5.224;2023-03-09T06:15:16;34.31;;;22.4;;
36833;SDS011;48003;52.084;5.224;2023-03-09T06:16:52;33.0;;;21.3;;
36833;SDS011;48003;52.084;5.224;2023-03-09T06:18:29;34.0;;;21.7;;
36833;SDS011;48003;52.084;5.224;2023-03-09T06:21:43;35.31;;;22.5;;
36833;SDS011;48003;52.084;5.224;2023-03-09T06:23:19;33.6;;;22.3;;
36833;SDS011;48003;52.084;5.224;2023-03-09T06:24:55;35.5;;;22.7;;
36833;SDS011;48003;52.084;5.224;2023-03-09T06:28:08;33.0;;;21.4;;
36833;SDS011;48003;52.084;5.224;2023-03-09T06:29:44;32.5;;;21.6;;
36833;SDS011;48003;52.084;5.224;2023-03-09T06:31:21;32.6;;;22.1;;
36833;SDS011;48003;52.084;5.224;2023-03-09T06:34:33;36.71;;;23.0;;
36833;SDS011;48003;52.084;5.224;2023-03-09T06:36:09;34.5;;;22.4;;
36833;SDS011;48003;52.084;5.224;2023-03-09T06:37:46;34.6;;;21.8;;
36833;SDS011;48003;52.084;5.224;2023-03-09T06:39:22;35.4;;;22.7;;
36833;SDS011;48003;52.084;5.224;2023-03-09T06:42:35;34.5;;;22.8;;
36833;SDS011;48003;52.084;5.224;2023-03-09T06:44:11;34.4;;;22.3;;
36833;SDS011;48003;52.084;5.224;2023-03-09T06:45:47;36.1;;;22.3;;
36833;SDS011;48003;52.084;5.224;2023-03-09T06:49:00;36.1;;;23.5;;
36833;SDS011;48003;52.084;5.224;2023-03-09T06:50:36;36.0;;;22.7;;
36833;SDS011;48003;52.084;5.224;2023-03-09T06:52:13;35.81;;;23.3;;
36833;SDS011;48003;52.084;5.224;2023-03-09T06:55:25;36.21;;;22.5;;
36833;SDS011;48003;52.084;5.224;2023-03-09T06:57:01;34.5;;;22.4;;
36833;SDS011;48003;52.084;5.224;2023-03-09T06:58:37;35.4;;;22.6;;
36833;SDS011;48003;52.084;5.224;2023-03-09T07:01:50;37.1;;;23.4;;
36833;SDS011;48003;52.084;5.224;2023-03-09T07:03:26;39.21;;;23.4;;
36833;SDS011;48003;52.084;5.224;2023-03-09T07:05:03;37.21;;;23.7;;
36833;SDS011;48003;52.084;5.224;2023-03-09T07:06:40;34.31;;;22.6;;
36833;SDS011;48003;52.084;5.224;2023-03-09T07:09:51;35.1;;;22.7;;
36833;SDS011;48003;52.084;5.224;2023-03-09T07:11:27;35.5;;;22.8;;
36833;SDS011;48003;52.084;5.224;2023-03-09T07:13:03;34.9;;;22.6;;
36833;SDS011;48003;52.084;5.224;2023-03-09T07:16:16;39.6;;;23.9;;
36833;SDS011;48003;52.084;5.224;2023-03-09T07:17:52;35.6;;;23.5;;
36833;SDS011;48003;52.084;5.224;2023-03-09T07:19:28;35.31;;;22.6;;
36833;SDS011;48003;52.084;5.224;2023-03-09T07:22:40;38.5;;;23.0;;
36833;SDS011;48003;52.084;5.224;2023-03-09T07:24:16;37.6;;;23.9;;
36833;SDS011;48003;52.084;5.224;2023-03-09T07:25:53;36.4;;;23.5;;
36833;SDS011;48003;52.084;5.224;2023-03-09T07:27:29;37.81;;;24.3;;
36833;SDS011;48003;52.084;5.224;2023-03-09T07:30:42;33.8;;;22.1;;
36833;SDS011;48003;52.084;5.224;2023-03-09T07:32:18;35.4;;;23.3;;
36833;SDS011;48003;52.084;5.224;2023-03-09T07:33:54;36.21;;;23.1;;
36833;SDS011;48003;52.084;5.224;2023-03-09T07:37:07;36.5;;;23.4;;
36833;SDS011;48003;52.084;5.224;2023-03-09T07:38:43;35.6;;;22.5;;
36833;SDS011;48003;52.084;5.224;2023-03-09T07:40:19;35.0;;;22.8;;
36833;SDS011;48003;52.084;5.224;2023-03-09T07:43:32;35.4;;;23.7;;
36833;SDS011;48003;52.084;5.224;2023-03-09T07:45:09;36.0;;;23.7;;
36833;SDS011;48003;52.084;5.224;2023-03-09T07:46:45;36.31;;;23.4;;
36833;SDS011;48003;52.084;5.224;2023-03-09T07:49:57;35.0;;;22.5;;
36833;SDS011;48003;52.084;5.224;2023-03-09T07:51:33;35.6;;;23.4;;
36833;SDS011;48003;52.084;5.224;2023-03-09T07:53:09;36.6;;;23.3;;
36833;SDS011;48003;52.084;5.224;2023-03-09T07:54:45;34.5;;;22.4;;
36833;SDS011;48003;52.084;5.224;2023-03-09T07:58:02;35.4;;;23.1;;
36833;SDS011;48003;52.084;5.224;2023-03-09T07:59:40;36.1;;;23.2;;
36833;SDS011;48003;52.084;5.224;2023-03-09T08:01:16;36.21;;;22.4;;
36833;SDS011;48003;52.084;5.224;2023-03-09T08:04:31;36.5;;;22.8;;
36833;SDS011;48003;52.084;5.224;2023-03-09T08:06:07;34.31;;;22.8;;
36833;SDS011;48003;52.084;5.224;2023-03-09T08:07:43;33.71;;;22.8;;
36833;SDS011;48003;52.084;5.224;2023-03-09T08:09:20;35.0;;;23.2;;
36833;SDS011;48003;52.084;5.224;2023-03-09T08:12:32;35.6;;;22.6;;
36833;SDS011;48003;52.084;5.224;2023-03-09T08:14:08;35.1;;;23.5;;
36833;SDS011;48003;52.084;5.224;2023-03-09T08:15:44;34.4;;;22.0;;
36833;SDS011;48003;52.084;5.224;2023-03-09T08:18:56;35.9;;;23.2;;
36833;SDS011;48003;52.084;5.224;2023-03-09T08:20:33;32.21;;;22.8;;
36833;SDS011;48003;52.084;5.224;2023-03-09T08:22:09;35.6;;;23.0;;
36833;SDS011;48003;52.084;5.224;2023-03-09T08:25:21;34.6;;;22.8;;
36833;SDS011;48003;52.084;5.224;2023-03-09T08:26:57;34.0;;;23.5;;
36833;SDS011;48003;52.084;5.224;2023-03-09T08:28:34;37.0;;;24.0;;
36833;SDS011;48003;52.084;5.224;2023-03-09T08:31:49;32.9;;;22.8;;
36833;SDS011;48003;52.084;5.224;2023-03-09T08:33:26;36.81;;;24.5;;
36833;SDS011;48003;52.084;5.224;2023-03-09T08:35:02;33.9;;;22.9;;
36833;SDS011;48003;52.084;5.224;2023-03-09T08:36:39;35.4;;;23.5;;
36833;SDS011;48003;52.084;5.224;2023-03-09T08:39:51;34.21;;;22.8;;
36833;SDS011;48003;52.084;5.224;2023-03-09T08:41:27;34.9;;;23.1;;
36833;SDS011;48003;52.084;5.224;2023-03-09T08:43:04;32.8;;;22.4;;
36833;SDS011;48003;52.084;5.224;2023-03-09T08:46:17;34.81;;;22.6;;
36833;SDS011;48003;52.084;5.224;2023-03-09T08:47:53;35.0;;;23.1;;
36833;SDS011;48003;52.084;5.224;2023-03-09T08:49:29;32.3;;;22.1;;
36833;SDS011;48003;52.084;5.224;2023-03-09T08:52:44;35.5;;;23.7;;
36833;SDS011;48003;52.084;5.224;2023-03-09T08:54:21;33.8;;;22.7;;
36833;SDS011;48003;52.084;5.224;2023-03-09T08:55:57;34.6;;;23.5;;
36833;SDS011;48003;52.084;5.224;2023-03-09T08:57:33;33.71;;;23.5;;
36833;SDS011;48003;52.084;5.224;2023-03-09T09:00:46;37.1;;;24.1;;
36833;SDS011;48003;52.084;5.224;2023-03-09T09:02:23;34.0;;;23.5;;
36833;SDS011;48003;52.084;5.224;2023-03-09T09:04:00;37.21;;;23.6;;
36833;SDS011;48003;52.084;5.224;2023-03-09T09:07:12;34.0;;;23.3;;
36833;SDS011;48003;52.084;5.224;2023-03-09T09:08:53;36.81;;;24.7;;
36833;SDS011;48003;52.084;5.224;2023-03-09T09:10:29;33.4;;;22.8;;
36833;SDS011;48003;52.084;5.224;2023-03-09T09:12:06;33.1;;;22.5;;
36833;SDS011;48003;52.084;5.224;2023-03-09T09:15:20;35.9;;;24.1;;
36833;SDS011;48003;52.084;5.224;2023-03-09T09:16:56;35.31;;;22.7;;
36833;SDS011;48003;52.084;5.224;2023-03-09T09:18:33;35.0;;;23.6;;
36833;SDS011;48003;52.084;5.224;2023-03-09T09:21:48;35.4;;;24.1;;
36833;SDS011;48003;52.084;5.224;2023-03-09T09:23:24;36.31;;;24.1;;
36833;SDS011;48003;52.084;5.224;2023-03-09T09:25:01;38.5;;;23.6;;
36833;SDS011;48003;52.084;5.224;2023-03-09T09:28:16;37.81;;;24.6;;
36833;SDS011;48003;52.084;5.224;2023-03-09T09:29:52;37.5;;;23.8;;
36833;SDS011;48003;52.084;5.224;2023-03-09T09:31:28;37.4;;;24.5;;
36833;SDS011;48003;52.084;5.224;2023-03-09T09:33:04;37.5;;;23.7;;
36833;SDS011;48003;52.084;5.224;2023-03-09T09:36:16;36.0;;;23.7;;
36833;SDS011;48003;52.084;5.224;2023-03-09T09:37:53;37.4;;;23.8;;
36833;SDS011;48003;52.084;5.224;2023-03-09T09:39:29;37.1;;;23.4;;
36833;SDS011;48003;52.084;5.224;2023-03-09T09:42:52;36.4;;;23.5;;
36833;SDS011;48003;52.084;5.224;2023-03-09T09:44:31;36.6;;;23.7;;
36833;SDS011;48003;52.084;5.224;2023-03-09T09:46:13;36.31;;;23.7;;
36833;SDS011;48003;52.084;5.224;2023-03-09T09:47:52;38.4;;;24.1;;
36833;SDS011;48003;52.084;5.224;2023-03-09T09:51:58;37.0;;;23.7;;
36833;SDS011;48003;52.084;5.224;2023-03-09T09:53:49;35.71;;;23.7;;
36833;SDS011;48003;52.084;5.224;2023-03-09T09:55:39;36.9;;;23.9;;
36833;SDS011;48003;52.084;5.224;2023-03-09T09:57:18;36.0;;;23.5;;
36833;SDS011;48003;52.084;5.224;2023-03-09T09:59:00;37.4;;;24.1;;
36833;SDS011;48003;52.084;5.224;2023-03-09T10:00:41;35.6;;;23.4;;
36833;SDS011;48003;52.084;5.224;2023-03-09T10:02:33;32.1;;;21.3;;
36833;SDS011;48003;52.084;5.224;2023-03-09T10:06:02;31.0;;;21.4;;
36833;SDS011;48003;52.084;5.224;2023-03-09T10:07:46;34.21;;;22.5;;
36833;SDS011;48003;52.084;5.224;2023-03-09T10:09:24;33.9;;;22.3;;
36833;SDS011;48003;52.084;5.224;2023-03-09T10:11:05;33.9;;;22.3;;
36833;SDS011;48003;52.084;5.224;2023-03-09T10:12:49;36.4;;;23.5;;
36833;SDS011;48003;52.084;5.224;2023-03-09T10:16:09;34.1;;;23.2;;
36833;SDS011;48003;52.084;5.224;2023-03-09T10:17:52;37.9;;;23.8;;
36833;SDS011;48003;52.084;5.224;2023-03-09T10:19:33;34.21;;;22.3;;
36833;SDS011;48003;52.084;5.224;2023-03-09T10:21:13;34.1;;;22.1;;
36833;SDS011;48003;52.084;5.224;2023-03-09T10:24:35;33.5;;;21.7;;
36833;SDS011;48003;52.084;5.224;2023-03-09T10:26:21;33.9;;;22.0;;
36833;SDS011;48003;52.084;5.224;2023-03-09T10:28:13;35.81;;;23.0;;
36833;SDS011;48003;52.084;5.224;2023-03-09T10:29:54;35.5;;;22.9;;
36833;SDS011;48003;52.084;5.224;2023-03-09T10:31:37;33.8;;;22.7;;
36833;SDS011;48003;52.084;5.224;2023-03-09T10:35:17;35.9;;;23.1;;
36833;SDS011;48003;52.084;5.224;2023-03-09T10:36:58;36.31;;;23.5;;
36833;SDS011;48003;52.084;5.224;2023-03-09T10:38:37;36.5;;;23.7;;
36833;SDS011;48003;52.084;5.224;2023-03-09T10:40:15;36.5;;;23.7;;
36833;SDS011;48003;52.084;5.224;2023-03-09T10:43:35;41.3;;;24.5;;
36833;SDS011;48003;52.084;5.224;2023-03-09T10:45:19;36.1;;;23.8;;
36833;SDS011;48003;52.084;5.224;2023-03-09T10:46:59;35.71;;;23.6;;
36833;SDS011;48003;52.084;5.224;2023-03-09T10:48:37;35.21;;;22.9;;
36833;SDS011;48003;52.084;5.224;2023-03-09T10:51:54;34.9;;;22.7;;
36833;SDS011;48003;52.084;5.224;2023-03-09T10:53:35;35.71;;;23.2;;
36833;SDS011;48003;52.084;5.224;2023-03-09T10:57:26;38.71;;;24.3;;
36833;SDS011;48003;52.084;5.224;2023-03-09T10:59:08;35.4;;;23.1;;
36833;SDS011;48003;52.084;5.224;2023-03-09T11:00:54;37.1;;;23.6;;
36833;SDS011;48003;52.084;5.224;2023-03-09T11:04:28;36.81;;;23.8;;
36833;SDS011;48003;52.084;5.224;2023-03-09T11:06:21;38.21;;;24.7;;
36833;SDS011;48003;52.084;5.224;2023-03-09T11:08:03;39.31;;;24.5;;
36833;SDS011;48003;52.084;5.224;2023-03-09T11:09:45;35.6;;;22.8;;
36833;SDS011;48003;52.084;5.224;2023-03-09T11:11:24;37.31;;;23.7;;
36833;SDS011;48003;52.084;5.224;2023-03-09T11:14:41;35.6;;;24.0;;
36833;SDS011;48003;52.084;5.224;2023-03-09T11:16:21;32.5;;;21.8;;
36833;SDS011;48003;52.084;5.224;2023-03-09T11:18:00;31.9;;;22.3;;
36833;SDS011;48003;52.084;5.224;2023-03-09T11:19:39;31.8;;;22.3;;
36833;SDS011;48003;52.084;5.224;2023-03-09T11:23:01;34.81;;;22.9;;
36833;SDS011;48003;52.084;5.224;2023-03-09T11:25:07;35.31;;;23.9;;
36833;SDS011;48003;52.084;5.224;2023-03-09T11:26:51;34.4;;;22.7;;
36833;SDS011;48003;52.084;5.224;2023-03-09T11:28:35;33.6;;;22.3;;
36833;SDS011;48003;52.084;5.224;2023-03-09T11:30:25;36.81;;;24.2;;
36833;SDS011;48003;52.084;5.224;2023-03-09T11:33:46;36.71;;;24.0;;
36833;SDS011;48003;52.084;5.224;2023-03-09T11:35:23;34.4;;;22.9;;
36833;SDS011;48003;52.084;5.224;2023-03-09T11:37:00;32.3;;;21.9;;
36833;SDS011;48003;52.084;5.224;2023-03-09T11:38:43;34.5;;;23.3;;
36833;SDS011;48003;52.084;5.224;2023-03-09T11:42:02;38.71;;;24.1;;
36833;SDS011;48003;52.084;5.224;2023-03-09T11:43:45;38.0;;;23.9;;
36833;SDS011;48003;52.084;5.224;2023-03-09T11:45:28;38.81;;;24.9;;
36833;SDS011;48003;52.084;5.224;2023-03-09T11:47:10;36.6;;;24.0;;
36833;SDS011;48003;52.084;5.224;2023-03-09T11:49:06;40.5;;;25.6;;
36833;SDS011;48003;52.084;5.224;2023-03-09T11:52:34;41.1;;;26.0;;
36833;SDS011;48003;52.084;5.224;2023-03-09T11:54:18;41.8;;;25.2;;
36833;SDS011;48003;52.084;5.224;2023-03-09T11:56:06;42.7;;;25.8;;
36833;SDS011;48003;52.084;5.224;2023-03-09T11:57:56;41.7;;;25.8;;
36833;SDS011;48003;52.084;5.224;2023-03-09T11:59:37;42.1;;;25.4;;
36833;SDS011;48003;52.084;5.224;2023-03-09T12:03:05;42.7;;;25.5;;
36833;SDS011;48003;52.084;5.224;2023-03-09T12:04:47;40.6;;;25.1;;
36833;SDS011;48003;52.084;5.224;2023-03-09T12:06:29;42.0;;;26.3;;
36833;SDS011;48003;52.084;5.224;2023-03-09T12:08:12;44.3;;;26.3;;
36833;SDS011;48003;52.084;5.224;2023-03-09T12:09:54;42.1;;;25.5;;
36833;SDS011;48003;52.084;5.224;2023-03-09T12:13:21;42.4;;;25.1;;
36833;SDS011;48003;52.084;5.224;2023-03-09T12:15:04;38.4;;;23.7;;
36833;SDS011;48003;52.084;5.224;2023-03-09T12:16:50;40.71;;;23.9;;
36833;SDS011;48003;52.084;5.224;2023-03-09T12:18:31;38.71;;;23.8;;
36833;SDS011;48003;52.084;5.224;2023-03-09T12:21:58;36.6;;;23.5;;
36833;SDS011;48003;52.084;5.224;2023-03-09T12:23:46;40.31;;;24.3;;
36833;SDS011;48003;52.084;5.224;2023-03-09T12:25:25;37.81;;;24.0;;
36833;SDS011;48003;52.084;5.224;2023-03-09T12:27:04;42.7;;;24.9;;
36833;SDS011;48003;52.084;5.224;2023-03-09T12:28:56;41.7;;;25.5;;
36833;SDS011;48003;52.084;5.224;2023-03-09T12:30:50;39.0;;;23.3;;
36833;SDS011;48003;52.084;5.224;2023-03-09T12:34:26;39.0;;;23.3;;